sensor_id;sensor_type;location;lat;lon;timestamp;temperature;humidity
15083;DHT22;7640;53.116;6.878;2022-09-09T00:01:07;16.20;99.90
15083;DHT22;7640;53.116;6.878;2022-09-09T00:03:42;16.30;99.90
15083;DHT22;7640;53.116;6.878;2022-09-09T00:06:18;16.20;99.90
15083;DHT22;7640;53.116;6.878;2022-09-09T00:08:58;16.20;99.90
15083;DHT22;7640;53.116;6.878;2022-09-09T00:11:35;16.20;99.90
15083;DHT22;7640;53.116;6.878;2022-09-09T00:14:14;16.10;99.90
15083;DHT22;7640;53.116;6.878;2022-09-09T00:16:51;16.10;99.90
15083;DHT22;7640;53.116;6.878;2022-09-09T00:19:24;16.00;99.90
15083;DHT22;7640;53.116;6.878;2022-09-09T00:22:04;16.00;99.90
15083;DHT22;7640;53.116;6.878;2022-09-09T00:24:41;16.10;99.90
15083;DHT22;7640;53.116;6.878;2022-09-09T00:27:16;15.90;99.90
15083;DHT22;7640;53.116;6.878;2022-09-09T00:29:53;15.90;99.90
15083;DHT22;7640;53.116;6.878;2022-09-09T00:32:28;15.80;99.90
15083;DHT22;7640;53.116;6.878;2022-09-09T00:35:02;15.80;99.90
15083;DHT22;7640;53.116;6.878;2022-09-09T00:37:32;15.80;99.90
15083;DHT22;7640;53.116;6.878;2022-09-09T00:40:08;15.70;99.90
15083;DHT22;7640;53.116;6.878;2022-09-09T00:42:54;15.70;99.90
15083;DHT22;7640;53.116;6.878;2022-09-09T00:45:48;15.70;99.90
15083;DHT22;7640;53.116;6.878;2022-09-09T00:48:27;15.60;99.90
15083;DHT22;7640;53.116;6.878;2022-09-09T00:51:07;15.60;99.90
15083;DHT22;7640;53.116;6.878;2022-09-09T00:53:41;15.60;99.90
15083;DHT22;7640;53.116;6.878;2022-09-09T00:56:23;15.60;99.90
15083;DHT22;7640;53.116;6.878;2022-09-09T00:59:00;15.50;99.90
15083;DHT22;7640;53.116;6.878;2022-09-09T01:01:35;15.60;99.90
15083;DHT22;7640;53.116;6.878;2022-09-09T01:04:07;15.50;99.90
15083;DHT22;7640;53.116;6.878;2022-09-09T01:06:37;15.50;99.90
15083;DHT22;7640;53.116;6.878;2022-09-09T01:09:12;15.50;99.90
15083;DHT22;7640;53.116;6.878;2022-09-09T01:11:52;15.50;99.90
15083;DHT22;7640;53.116;6.878;2022-09-09T01:14:45;15.50;99.90
15083;DHT22;7640;53.116;6.878;2022-09-09T01:17:22;15.50;99.90
15083;DHT22;7640;53.116;6.878;2022-09-09T01:20:02;15.40;99.90
15083;DHT22;7640;53.116;6.878;2022-09-09T01:22:37;15.50;99.90
15083;DHT22;7640;53.116;6.878;2022-09-09T01:25:22;15.40;99.90
15083;DHT22;7640;53.116;6.878;2022-09-09T01:28:00;15.40;99.90
15083;DHT22;7640;53.116;6.878;2022-09-09T01:30:31;15.40;99.90
15083;DHT22;7640;53.116;6.878;2022-09-09T01:33:01;15.40;99.90
15083;DHT22;7640;53.116;6.878;2022-09-09T01:35:41;15.40;99.90
15083;DHT22;7640;53.116;6.878;2022-09-09T01:38:13;15.40;99.90
15083;DHT22;7640;53.116;6.878;2022-09-09T01:40:42;15.30;99.90
15083;DHT22;7640;53.116;6.878;2022-09-09T01:43:12;15.30;99.90
15083;DHT22;7640;53.116;6.878;2022-09-09T01:45:41;15.30;99.90
15083;DHT22;7640;53.116;6.878;2022-09-09T01:48:10;15.30;99.90
15083;DHT22;7640;53.116;6.878;2022-09-09T01:50:38;15.30;99.90
15083;DHT22;7640;53.116;6.878;2022-09-09T01:53:07;15.30;99.90
15083;DHT22;7640;53.116;6.878;2022-09-09T01:55:38;15.20;99.90
15083;DHT22;7640;53.116;6.878;2022-09-09T01:58:20;15.20;99.90
15083;DHT22;7640;53.116;6.878;2022-09-09T02:01:06;15.20;99.90
15083;DHT22;7640;53.116;6.878;2022-09-09T02:03:41;15.20;99.90
15083;DHT22;7640;53.116;6.878;2022-09-09T02:06:24;15.20;99.90
15083;DHT22;7640;53.116;6.878;2022-09-09T02:08:56;15.20;99.90
15083;DHT22;7640;53.116;6.878;2022-09-09T02:11:28;15.20;99.90
15083;DHT22;7640;53.116;6.878;2022-09-09T02:14:00;15.20;99.90
15083;DHT22;7640;53.116;6.878;2022-09-09T02:16:34;15.20;99.90
15083;DHT22;7640;53.116;6.878;2022-09-09T02:19:08;15.20;99.90
15083;DHT22;7640;53.116;6.878;2022-09-09T02:21:42;15.20;99.90
15083;DHT22;7640;53.116;6.878;2022-09-09T02:24:14;15.20;99.90
15083;DHT22;7640;53.116;6.878;2022-09-09T02:26:45;15.20;99.90
15083;DHT22;7640;53.116;6.878;2022-09-09T02:29:20;15.20;99.90
15083;DHT22;7640;53.116;6.878;2022-09-09T02:31:52;15.30;99.90
15083;DHT22;7640;53.116;6.878;2022-09-09T02:34:23;15.30;99.90
15083;DHT22;7640;53.116;6.878;2022-09-09T02:36:53;15.30;99.90
15083;DHT22;7640;53.116;6.878;2022-09-09T02:39:22;15.30;99.90
15083;DHT22;7640;53.116;6.878;2022-09-09T02:41:50;15.30;99.90
15083;DHT22;7640;53.116;6.878;2022-09-09T02:44:20;15.40;99.90
15083;DHT22;7640;53.116;6.878;2022-09-09T02:47:09;15.40;99.90
15083;DHT22;7640;53.116;6.878;2022-09-09T02:49:52;15.40;99.90
15083;DHT22;7640;53.116;6.878;2022-09-09T02:52:34;15.50;99.90
15083;DHT22;7640;53.116;6.878;2022-09-09T02:55:15;15.50;99.90
15083;DHT22;7640;53.116;6.878;2022-09-09T02:57:46;15.50;99.90
15083;DHT22;7640;53.116;6.878;2022-09-09T03:00:21;15.60;99.90
15083;DHT22;7640;53.116;6.878;2022-09-09T03:02:51;15.60;99.90
15083;DHT22;7640;53.116;6.878;2022-09-09T03:05:20;15.60;99.90
15083;DHT22;7640;53.116;6.878;2022-09-09T03:07:48;15.70;99.90
15083;DHT22;7640;53.116;6.878;2022-09-09T03:10:17;15.70;99.90
15083;DHT22;7640;53.116;6.878;2022-09-09T03:12:45;15.70;99.90
15083;DHT22;7640;53.116;6.878;2022-09-09T03:15:13;15.70;99.90
15083;DHT22;7640;53.116;6.878;2022-09-09T03:17:43;15.70;99.90
15083;DHT22;7640;53.116;6.878;2022-09-09T03:20:11;15.70;99.90
15083;DHT22;7640;53.116;6.878;2022-09-09T03:22:39;15.80;99.90
15083;DHT22;7640;53.116;6.878;2022-09-09T03:25:08;15.80;99.90
15083;DHT22;7640;53.116;6.878;2022-09-09T03:27:36;15.80;99.90
15083;DHT22;7640;53.116;6.878;2022-09-09T03:30:05;15.80;99.90
15083;DHT22;7640;53.116;6.878;2022-09-09T03:32:35;15.80;99.90
15083;DHT22;7640;53.116;6.878;2022-09-09T03:35:04;15.80;99.90
15083;DHT22;7640;53.116;6.878;2022-09-09T03:37:32;15.80;99.90
15083;DHT22;7640;53.116;6.878;2022-09-09T03:40:00;15.80;99.90
15083;DHT22;7640;53.116;6.878;2022-09-09T03:42:29;15.80;99.90
15083;DHT22;7640;53.116;6.878;2022-09-09T03:44:58;15.80;99.90
15083;DHT22;7640;53.116;6.878;2022-09-09T03:47:26;15.80;99.90
15083;DHT22;7640;53.116;6.878;2022-09-09T03:49:56;15.80;99.90
15083;DHT22;7640;53.116;6.878;2022-09-09T03:52:24;15.70;99.90
15083;DHT22;7640;53.116;6.878;2022-09-09T03:54:53;15.90;99.90
15083;DHT22;7640;53.116;6.878;2022-09-09T03:57:21;15.90;99.90
15083;DHT22;7640;53.116;6.878;2022-09-09T03:59:50;15.90;99.90
15083;DHT22;7640;53.116;6.878;2022-09-09T04:02:18;15.90;99.90
15083;DHT22;7640;53.116;6.878;2022-09-09T04:04:47;15.90;99.90
15083;DHT22;7640;53.116;6.878;2022-09-09T04:07:17;15.80;99.90
15083;DHT22;7640;53.116;6.878;2022-09-09T04:09:45;15.90;99.90
15083;DHT22;7640;53.116;6.878;2022-09-09T04:12:13;15.90;99.90
15083;DHT22;7640;53.116;6.878;2022-09-09T04:14:41;15.90;99.90
15083;DHT22;7640;53.116;6.878;2022-09-09T04:17:09;15.90;99.90
15083;DHT22;7640;53.116;6.878;2022-09-09T04:19:37;15.90;99.90
15083;DHT22;7640;53.116;6.878;2022-09-09T04:22:05;15.90;99.90
15083;DHT22;7640;53.116;6.878;2022-09-09T04:24:35;15.90;99.90
15083;DHT22;7640;53.116;6.878;2022-09-09T04:27:03;15.90;99.90
15083;DHT22;7640;53.116;6.878;2022-09-09T04:29:31;15.90;99.90
15083;DHT22;7640;53.116;6.878;2022-09-09T04:32:00;15.90;99.90
15083;DHT22;7640;53.116;6.878;2022-09-09T04:34:28;15.80;99.90
15083;DHT22;7640;53.116;6.878;2022-09-09T04:36:57;15.80;99.90
15083;DHT22;7640;53.116;6.878;2022-09-09T04:39:25;15.80;99.90
15083;DHT22;7640;53.116;6.878;2022-09-09T04:41:54;15.80;99.90
15083;DHT22;7640;53.116;6.878;2022-09-09T04:44:23;15.80;99.90
15083;DHT22;7640;53.116;6.878;2022-09-09T04:46:51;15.80;99.90
15083;DHT22;7640;53.116;6.878;2022-09-09T04:49:19;15.80;99.90
15083;DHT22;7640;53.116;6.878;2022-09-09T04:51:48;15.80;99.90
15083;DHT22;7640;53.116;6.878;2022-09-09T04:54:17;15.80;99.90
15083;DHT22;7640;53.116;6.878;2022-09-09T04:56:45;15.80;99.90
15083;DHT22;7640;53.116;6.878;2022-09-09T04:59:15;15.80;99.90
15083;DHT22;7640;53.116;6.878;2022-09-09T05:01:43;15.70;99.90
15083;DHT22;7640;53.116;6.878;2022-09-09T05:04:12;15.80;99.90
15083;DHT22;7640;53.116;6.878;2022-09-09T05:06:41;15.80;99.90
15083;DHT22;7640;53.116;6.878;2022-09-09T05:09:09;15.80;99.90
15083;DHT22;7640;53.116;6.878;2022-09-09T05:11:37;15.70;99.90
15083;DHT22;7640;53.116;6.878;2022-09-09T05:14:05;15.70;99.90
15083;DHT22;7640;53.116;6.878;2022-09-09T05:16:35;15.70;99.90
15083;DHT22;7640;53.116;6.878;2022-09-09T05:19:03;15.70;99.90
15083;DHT22;7640;53.116;6.878;2022-09-09T05:21:31;15.70;99.90
15083;DHT22;7640;53.116;6.878;2022-09-09T05:24:00;15.70;99.90
15083;DHT22;7640;53.116;6.878;2022-09-09T05:26:28;15.70;99.90
15083;DHT22;7640;53.116;6.878;2022-09-09T05:28:58;15.70;99.90
15083;DHT22;7640;53.116;6.878;2022-09-09T05:31:29;15.70;99.90
15083;DHT22;7640;53.116;6.878;2022-09-09T05:33:59;15.70;99.90
15083;DHT22;7640;53.116;6.878;2022-09-09T05:36:27;15.80;99.90
15083;DHT22;7640;53.116;6.878;2022-09-09T05:38:55;15.80;99.90
15083;DHT22;7640;53.116;6.878;2022-09-09T05:41:24;15.80;99.90
15083;DHT22;7640;53.116;6.878;2022-09-09T05:43:54;15.80;99.90
15083;DHT22;7640;53.116;6.878;2022-09-09T05:46:23;15.80;99.90
15083;DHT22;7640;53.116;6.878;2022-09-09T05:48:53;15.80;99.90
15083;DHT22;7640;53.116;6.878;2022-09-09T05:51:25;15.80;99.90
15083;DHT22;7640;53.116;6.878;2022-09-09T05:53:54;15.80;99.90
15083;DHT22;7640;53.116;6.878;2022-09-09T05:56:26;15.80;99.90
15083;DHT22;7640;53.116;6.878;2022-09-09T05:58:56;15.80;99.90
15083;DHT22;7640;53.116;6.878;2022-09-09T06:01:28;15.80;99.90
15083;DHT22;7640;53.116;6.878;2022-09-09T06:03:57;15.80;99.90
15083;DHT22;7640;53.116;6.878;2022-09-09T06:06:30;15.80;99.90
15083;DHT22;7640;53.116;6.878;2022-09-09T06:09:04;15.80;99.90
15083;DHT22;7640;53.116;6.878;2022-09-09T06:11:37;15.80;99.90
15083;DHT22;7640;53.116;6.878;2022-09-09T06:14:07;15.80;99.90
15083;DHT22;7640;53.116;6.878;2022-09-09T06:16:36;15.80;99.90
15083;DHT22;7640;53.116;6.878;2022-09-09T06:19:05;15.80;99.90
15083;DHT22;7640;53.116;6.878;2022-09-09T06:21:36;15.80;99.90
15083;DHT22;7640;53.116;6.878;2022-09-09T06:24:05;15.80;99.90
15083;DHT22;7640;53.116;6.878;2022-09-09T06:26:35;15.90;99.90
15083;DHT22;7640;53.116;6.878;2022-09-09T06:29:04;15.90;99.90
15083;DHT22;7640;53.116;6.878;2022-09-09T06:31:33;15.90;99.90
15083;DHT22;7640;53.116;6.878;2022-09-09T06:34:05;15.90;99.90
15083;DHT22;7640;53.116;6.878;2022-09-09T06:36:37;16.00;99.90
15083;DHT22;7640;53.116;6.878;2022-09-09T06:39:06;16.00;99.90
15083;DHT22;7640;53.116;6.878;2022-09-09T06:41:40;16.10;99.90
15083;DHT22;7640;53.116;6.878;2022-09-09T06:44:09;16.10;99.90
15083;DHT22;7640;53.116;6.878;2022-09-09T06:46:39;16.20;99.90
15083;DHT22;7640;53.116;6.878;2022-09-09T06:49:07;16.20;99.90
15083;DHT22;7640;53.116;6.878;2022-09-09T06:51:38;16.20;99.90
15083;DHT22;7640;53.116;6.878;2022-09-09T06:54:10;16.30;99.90
15083;DHT22;7640;53.116;6.878;2022-09-09T06:56:40;16.40;99.90
15083;DHT22;7640;53.116;6.878;2022-09-09T06:59:10;16.40;99.90
15083;DHT22;7640;53.116;6.878;2022-09-09T07:01:40;16.50;99.90
15083;DHT22;7640;53.116;6.878;2022-09-09T07:04:10;16.50;99.90
15083;DHT22;7640;53.116;6.878;2022-09-09T07:06:42;16.60;99.90
15083;DHT22;7640;53.116;6.878;2022-09-09T07:09:12;16.60;99.90
15083;DHT22;7640;53.116;6.878;2022-09-09T07:11:43;16.70;99.90
15083;DHT22;7640;53.116;6.878;2022-09-09T07:14:13;16.80;99.90
15083;DHT22;7640;53.116;6.878;2022-09-09T07:16:43;16.80;99.90
15083;DHT22;7640;53.116;6.878;2022-09-09T07:19:12;16.90;99.90
15083;DHT22;7640;53.116;6.878;2022-09-09T07:21:43;17.00;99.90
15083;DHT22;7640;53.116;6.878;2022-09-09T07:24:11;17.00;99.90
15083;DHT22;7640;53.116;6.878;2022-09-09T07:26:40;17.00;99.90
15083;DHT22;7640;53.116;6.878;2022-09-09T07:29:08;17.10;99.90
15083;DHT22;7640;53.116;6.878;2022-09-09T07:31:46;17.10;99.90
15083;DHT22;7640;53.116;6.878;2022-09-09T07:34:15;17.20;99.90
15083;DHT22;7640;53.116;6.878;2022-09-09T07:36:44;17.20;99.90
15083;DHT22;7640;53.116;6.878;2022-09-09T07:39:14;17.30;99.90
15083;DHT22;7640;53.116;6.878;2022-09-09T07:41:45;17.40;99.90
15083;DHT22;7640;53.116;6.878;2022-09-09T07:44:16;17.40;99.90
15083;DHT22;7640;53.116;6.878;2022-09-09T07:46:47;17.60;99.90
15083;DHT22;7640;53.116;6.878;2022-09-09T07:49:16;17.60;99.90
15083;DHT22;7640;53.116;6.878;2022-09-09T07:51:53;17.70;99.90
15083;DHT22;7640;53.116;6.878;2022-09-09T07:54:21;17.70;99.90
15083;DHT22;7640;53.116;6.878;2022-09-09T07:56:50;17.80;99.90
15083;DHT22;7640;53.116;6.878;2022-09-09T07:59:19;18.00;99.90
15083;DHT22;7640;53.116;6.878;2022-09-09T08:01:49;18.00;99.90
15083;DHT22;7640;53.116;6.878;2022-09-09T08:04:22;18.10;99.90
15083;DHT22;7640;53.116;6.878;2022-09-09T08:06:54;18.20;99.90
15083;DHT22;7640;53.116;6.878;2022-09-09T08:09:25;18.30;99.90
15083;DHT22;7640;53.116;6.878;2022-09-09T08:11:56;18.40;99.90
15083;DHT22;7640;53.116;6.878;2022-09-09T08:14:24;18.40;99.90
15083;DHT22;7640;53.116;6.878;2022-09-09T08:16:53;18.50;99.90
15083;DHT22;7640;53.116;6.878;2022-09-09T08:19:22;18.50;99.90
15083;DHT22;7640;53.116;6.878;2022-09-09T08:21:53;18.60;99.90
15083;DHT22;7640;53.116;6.878;2022-09-09T08:24:21;18.60;99.90
15083;DHT22;7640;53.116;6.878;2022-09-09T08:26:49;18.70;99.90
15083;DHT22;7640;53.116;6.878;2022-09-09T08:29:18;18.70;99.90
15083;DHT22;7640;53.116;6.878;2022-09-09T08:31:48;18.70;99.90
15083;DHT22;7640;53.116;6.878;2022-09-09T08:34:19;18.80;99.90
15083;DHT22;7640;53.116;6.878;2022-09-09T08:36:49;18.90;99.90
15083;DHT22;7640;53.116;6.878;2022-09-09T08:39:20;18.90;99.90
15083;DHT22;7640;53.116;6.878;2022-09-09T08:42:17;19.00;99.90
15083;DHT22;7640;53.116;6.878;2022-09-09T08:45:18;19.10;99.90
15083;DHT22;7640;53.116;6.878;2022-09-09T08:48:01;19.20;99.90
15083;DHT22;7640;53.116;6.878;2022-09-09T08:50:37;19.30;99.90
15083;DHT22;7640;53.116;6.878;2022-09-09T08:53:12;19.40;99.90
15083;DHT22;7640;53.116;6.878;2022-09-09T08:55:48;19.60;99.90
15083;DHT22;7640;53.116;6.878;2022-09-09T08:58:20;19.90;99.90
15083;DHT22;7640;53.116;6.878;2022-09-09T09:01:16;20.10;99.90
15083;DHT22;7640;53.116;6.878;2022-09-09T09:03:54;20.40;99.90
15083;DHT22;7640;53.116;6.878;2022-09-09T09:06:38;20.70;99.90
15083;DHT22;7640;53.116;6.878;2022-09-09T09:09:14;20.80;99.90
15083;DHT22;7640;53.116;6.878;2022-09-09T09:11:49;20.90;99.90
15083;DHT22;7640;53.116;6.878;2022-09-09T09:14:20;20.90;99.90
15083;DHT22;7640;53.116;6.878;2022-09-09T09:16:53;21.00;99.90
15083;DHT22;7640;53.116;6.878;2022-09-09T09:19:24;21.10;99.90
15083;DHT22;7640;53.116;6.878;2022-09-09T09:21:59;21.30;99.90
15083;DHT22;7640;53.116;6.878;2022-09-09T09:24:38;21.40;99.90
15083;DHT22;7640;53.116;6.878;2022-09-09T09:27:15;21.60;99.90
15083;DHT22;7640;53.116;6.878;2022-09-09T09:29:48;21.70;99.90
15083;DHT22;7640;53.116;6.878;2022-09-09T09:32:39;21.80;99.90
15083;DHT22;7640;53.116;6.878;2022-09-09T09:35:12;21.80;99.90
15083;DHT22;7640;53.116;6.878;2022-09-09T09:37:41;21.90;99.90
15083;DHT22;7640;53.116;6.878;2022-09-09T09:40:31;21.80;99.90
15083;DHT22;7640;53.116;6.878;2022-09-09T09:43:02;21.90;99.90
15083;DHT22;7640;53.116;6.878;2022-09-09T09:45:41;22.10;99.90
15083;DHT22;7640;53.116;6.878;2022-09-09T09:48:31;22.20;99.90
15083;DHT22;7640;53.116;6.878;2022-09-09T09:51:02;22.30;99.90
15083;DHT22;7640;53.116;6.878;2022-09-09T09:53:35;22.40;99.90
15083;DHT22;7640;53.116;6.878;2022-09-09T09:56:06;22.40;99.90
15083;DHT22;7640;53.116;6.878;2022-09-09T09:58:49;22.40;99.90
15083;DHT22;7640;53.116;6.878;2022-09-09T10:01:21;22.50;99.90
15083;DHT22;7640;53.116;6.878;2022-09-09T10:03:53;22.60;99.90
15083;DHT22;7640;53.116;6.878;2022-09-09T10:06:32;22.70;99.90
15083;DHT22;7640;53.116;6.878;2022-09-09T10:09:03;22.80;99.90
15083;DHT22;7640;53.116;6.878;2022-09-09T10:11:42;22.80;99.90
15083;DHT22;7640;53.116;6.878;2022-09-09T10:14:18;22.80;99.90
15083;DHT22;7640;53.116;6.878;2022-09-09T10:16:57;22.90;99.90
15083;DHT22;7640;53.116;6.878;2022-09-09T10:19:32;22.90;99.90
15083;DHT22;7640;53.116;6.878;2022-09-09T10:22:12;22.90;99.90
15083;DHT22;7640;53.116;6.878;2022-09-09T10:25:04;22.80;99.90
15083;DHT22;7640;53.116;6.878;2022-09-09T10:27:49;22.80;99.90
15083;DHT22;7640;53.116;6.878;2022-09-09T10:30:35;22.80;99.90
15083;DHT22;7640;53.116;6.878;2022-09-09T10:33:15;22.80;99.90
15083;DHT22;7640;53.116;6.878;2022-09-09T10:35:53;22.80;99.90
15083;DHT22;7640;53.116;6.878;2022-09-09T10:38:30;22.70;99.90
15083;DHT22;7640;53.116;6.878;2022-09-09T10:41:13;22.70;99.90
15083;DHT22;7640;53.116;6.878;2022-09-09T10:44:14;22.70;99.90
15083;DHT22;7640;53.116;6.878;2022-09-09T10:47:09;22.60;99.90
15083;DHT22;7640;53.116;6.878;2022-09-09T10:49:57;22.60;99.90
15083;DHT22;7640;53.116;6.878;2022-09-09T10:52:40;22.50;99.90
15083;DHT22;7640;53.116;6.878;2022-09-09T10:55:17;22.40;99.90
15083;DHT22;7640;53.116;6.878;2022-09-09T10:57:47;22.40;99.90
15083;DHT22;7640;53.116;6.878;2022-09-09T11:00:19;22.50;99.90
15083;DHT22;7640;53.116;6.878;2022-09-09T11:02:55;22.60;99.90
15083;DHT22;7640;53.116;6.878;2022-09-09T11:05:28;22.80;99.90
15083;DHT22;7640;53.116;6.878;2022-09-09T11:08:04;22.90;99.90
15083;DHT22;7640;53.116;6.878;2022-09-09T11:10:39;23.20;99.90
15083;DHT22;7640;53.116;6.878;2022-09-09T11:13:11;23.30;99.90
15083;DHT22;7640;53.116;6.878;2022-09-09T11:15:48;23.40;99.90
15083;DHT22;7640;53.116;6.878;2022-09-09T11:18:21;23.40;99.90
15083;DHT22;7640;53.116;6.878;2022-09-09T11:20:55;23.50;99.90
15083;DHT22;7640;53.116;6.878;2022-09-09T11:23:29;23.60;99.90
15083;DHT22;7640;53.116;6.878;2022-09-09T11:26:11;23.70;99.90
15083;DHT22;7640;53.116;6.878;2022-09-09T11:28:53;23.60;99.90
15083;DHT22;7640;53.116;6.878;2022-09-09T11:31:52;23.70;99.90
15083;DHT22;7640;53.116;6.878;2022-09-09T11:34:37;23.80;99.90
15083;DHT22;7640;53.116;6.878;2022-09-09T11:40:58;24.00;99.90
15083;DHT22;7640;53.116;6.878;2022-09-09T11:43:31;23.90;99.90
15083;DHT22;7640;53.116;6.878;2022-09-09T11:46:02;23.90;99.90
15083;DHT22;7640;53.116;6.878;2022-09-09T11:48:33;24.10;99.90
15083;DHT22;7640;53.116;6.878;2022-09-09T11:51:07;24.30;99.90
15083;DHT22;7640;53.116;6.878;2022-09-09T11:53:50;24.40;99.90
15083;DHT22;7640;53.116;6.878;2022-09-09T11:56:27;24.50;99.90
15083;DHT22;7640;53.116;6.878;2022-09-09T11:59:00;24.60;99.90
15083;DHT22;7640;53.116;6.878;2022-09-09T12:01:35;24.80;99.90
15083;DHT22;7640;53.116;6.878;2022-09-09T12:04:27;25.00;99.90
15083;DHT22;7640;53.116;6.878;2022-09-09T12:07:01;25.20;99.90
15083;DHT22;7640;53.116;6.878;2022-09-09T12:09:42;25.30;99.90
15083;DHT22;7640;53.116;6.878;2022-09-09T12:12:26;25.40;99.90
15083;DHT22;7640;53.116;6.878;2022-09-09T12:14:59;25.40;99.90
15083;DHT22;7640;53.116;6.878;2022-09-09T12:17:31;25.30;99.90
15083;DHT22;7640;53.116;6.878;2022-09-09T12:20:02;25.40;99.90
15083;DHT22;7640;53.116;6.878;2022-09-09T12:22:43;25.60;99.90
15083;DHT22;7640;53.116;6.878;2022-09-09T12:25:29;25.90;99.90
15083;DHT22;7640;53.116;6.878;2022-09-09T12:28:10;26.10;99.90
15083;DHT22;7640;53.116;6.878;2022-09-09T12:30:48;26.00;99.90
15083;DHT22;7640;53.116;6.878;2022-09-09T12:33:19;25.90;99.90
15083;DHT22;7640;53.116;6.878;2022-09-09T12:35:54;25.90;99.90
15083;DHT22;7640;53.116;6.878;2022-09-09T12:38:29;25.90;99.90
15083;DHT22;7640;53.116;6.878;2022-09-09T12:41:00;25.70;99.90
15083;DHT22;7640;53.116;6.878;2022-09-09T12:43:28;25.50;99.90
15083;DHT22;7640;53.116;6.878;2022-09-09T12:45:59;25.40;99.90
15083;DHT22;7640;53.116;6.878;2022-09-09T12:48:32;25.30;99.90
15083;DHT22;7640;53.116;6.878;2022-09-09T12:51:16;25.10;99.90
15083;DHT22;7640;53.116;6.878;2022-09-09T12:53:47;25.20;99.90
15083;DHT22;7640;53.116;6.878;2022-09-09T12:56:21;25.10;99.90
15083;DHT22;7640;53.116;6.878;2022-09-09T12:58:51;25.00;99.90
15083;DHT22;7640;53.116;6.878;2022-09-09T13:01:22;24.90;99.90
15083;DHT22;7640;53.116;6.878;2022-09-09T13:03:52;24.70;99.90
15083;DHT22;7640;53.116;6.878;2022-09-09T13:06:23;24.60;99.90
15083;DHT22;7640;53.116;6.878;2022-09-09T13:08:59;24.90;99.90
15083;DHT22;7640;53.116;6.878;2022-09-09T13:11:31;25.50;99.90
15083;DHT22;7640;53.116;6.878;2022-09-09T13:14:05;26.00;99.90
15083;DHT22;7640;53.116;6.878;2022-09-09T13:16:35;26.30;99.90
15083;DHT22;7640;53.116;6.878;2022-09-09T13:19:13;26.50;99.90
15083;DHT22;7640;53.116;6.878;2022-09-09T13:21:43;27.10;99.90
15083;DHT22;7640;53.116;6.878;2022-09-09T13:24:26;27.70;99.90
15083;DHT22;7640;53.116;6.878;2022-09-09T13:26:57;28.10;99.90
15083;DHT22;7640;53.116;6.878;2022-09-09T13:29:27;27.80;99.90
15083;DHT22;7640;53.116;6.878;2022-09-09T13:32:03;27.90;99.90
15083;DHT22;7640;53.116;6.878;2022-09-09T13:34:35;27.80;99.90
15083;DHT22;7640;53.116;6.878;2022-09-09T13:37:05;27.60;99.90
15083;DHT22;7640;53.116;6.878;2022-09-09T13:39:37;27.30;99.90
15083;DHT22;7640;53.116;6.878;2022-09-09T13:42:06;27.20;99.90
15083;DHT22;7640;53.116;6.878;2022-09-09T13:44:47;27.20;99.90
15083;DHT22;7640;53.116;6.878;2022-09-09T13:47:19;27.00;99.90
15083;DHT22;7640;53.116;6.878;2022-09-09T13:49:48;26.50;99.90
15083;DHT22;7640;53.116;6.878;2022-09-09T13:52:17;26.00;99.90
15083;DHT22;7640;53.116;6.878;2022-09-09T13:54:49;25.70;99.90
15083;DHT22;7640;53.116;6.878;2022-09-09T13:57:19;25.30;99.90
15083;DHT22;7640;53.116;6.878;2022-09-09T13:59:48;25.00;99.90
15083;DHT22;7640;53.116;6.878;2022-09-09T14:02:30;24.70;99.90
15083;DHT22;7640;53.116;6.878;2022-09-09T14:04:59;24.40;99.90
15083;DHT22;7640;53.116;6.878;2022-09-09T14:07:27;24.20;99.90
15083;DHT22;7640;53.116;6.878;2022-09-09T14:09:57;24.00;99.90
15083;DHT22;7640;53.116;6.878;2022-09-09T14:12:26;23.90;99.90
15083;DHT22;7640;53.116;6.878;2022-09-09T14:14:55;23.70;99.90
15083;DHT22;7640;53.116;6.878;2022-09-09T14:17:23;23.60;99.90
15083;DHT22;7640;53.116;6.878;2022-09-09T14:19:51;23.50;99.90
15083;DHT22;7640;53.116;6.878;2022-09-09T14:22:20;23.50;99.90
15083;DHT22;7640;53.116;6.878;2022-09-09T14:24:48;23.60;99.90
15083;DHT22;7640;53.116;6.878;2022-09-09T14:27:18;24.10;99.90
15083;DHT22;7640;53.116;6.878;2022-09-09T14:29:46;24.90;99.90
15083;DHT22;7640;53.116;6.878;2022-09-09T14:32:14;25.30;99.90
15083;DHT22;7640;53.116;6.878;2022-09-09T14:34:42;25.20;99.90
15083;DHT22;7640;53.116;6.878;2022-09-09T14:37:10;25.00;99.90
15083;DHT22;7640;53.116;6.878;2022-09-09T14:39:38;24.70;99.90
15083;DHT22;7640;53.116;6.878;2022-09-09T14:42:07;24.40;99.90
15083;DHT22;7640;53.116;6.878;2022-09-09T14:44:39;24.20;99.90
15083;DHT22;7640;53.116;6.878;2022-09-09T14:47:07;23.90;99.90
15083;DHT22;7640;53.116;6.878;2022-09-09T14:49:36;23.60;99.90
15083;DHT22;7640;53.116;6.878;2022-09-09T14:52:08;23.30;99.90
15083;DHT22;7640;53.116;6.878;2022-09-09T14:54:36;23.10;99.90
15083;DHT22;7640;53.116;6.878;2022-09-09T14:57:04;23.00;99.90
15083;DHT22;7640;53.116;6.878;2022-09-09T14:59:32;22.90;99.90
15083;DHT22;7640;53.116;6.878;2022-09-09T15:02:02;22.90;99.90
15083;DHT22;7640;53.116;6.878;2022-09-09T15:04:31;22.90;99.90
15083;DHT22;7640;53.116;6.878;2022-09-09T15:06:59;22.80;99.90
15083;DHT22;7640;53.116;6.878;2022-09-09T15:09:27;22.60;99.90
15083;DHT22;7640;53.116;6.878;2022-09-09T15:11:55;22.70;99.90
15083;DHT22;7640;53.116;6.878;2022-09-09T15:14:24;22.60;99.90
15083;DHT22;7640;53.116;6.878;2022-09-09T15:16:53;22.50;99.90
15083;DHT22;7640;53.116;6.878;2022-09-09T15:19:23;22.40;99.90
15083;DHT22;7640;53.116;6.878;2022-09-09T15:21:51;22.30;99.90
15083;DHT22;7640;53.116;6.878;2022-09-09T15:24:19;22.10;99.90
15083;DHT22;7640;53.116;6.878;2022-09-09T15:26:48;21.90;99.90
15083;DHT22;7640;53.116;6.878;2022-09-09T15:29:16;21.70;99.90
15083;DHT22;7640;53.116;6.878;2022-09-09T15:31:45;21.60;99.90
15083;DHT22;7640;53.116;6.878;2022-09-09T15:34:14;21.50;99.90
15083;DHT22;7640;53.116;6.878;2022-09-09T15:36:44;21.60;99.90
15083;DHT22;7640;53.116;6.878;2022-09-09T15:39:15;21.70;99.90
15083;DHT22;7640;53.116;6.878;2022-09-09T15:41:45;21.80;99.90
15083;DHT22;7640;53.116;6.878;2022-09-09T15:44:15;22.30;99.90
15083;DHT22;7640;53.116;6.878;2022-09-09T15:46:44;22.70;99.90
15083;DHT22;7640;53.116;6.878;2022-09-09T15:49:16;23.90;99.90
15083;DHT22;7640;53.116;6.878;2022-09-09T15:51:50;25.30;99.90
15083;DHT22;7640;53.116;6.878;2022-09-09T15:54:20;26.70;99.90
15083;DHT22;7640;53.116;6.878;2022-09-09T15:56:52;27.60;99.90
15083;DHT22;7640;53.116;6.878;2022-09-09T15:59:25;28.30;99.90
15083;DHT22;7640;53.116;6.878;2022-09-09T16:01:54;28.90;99.90
15083;DHT22;7640;53.116;6.878;2022-09-09T16:04:24;29.60;99.90
15083;DHT22;7640;53.116;6.878;2022-09-09T16:06:55;30.20;99.90
15083;DHT22;7640;53.116;6.878;2022-09-09T16:09:25;31.10;99.90
15083;DHT22;7640;53.116;6.878;2022-09-09T16:11:56;31.40;99.90
15083;DHT22;7640;53.116;6.878;2022-09-09T16:14:26;31.80;99.90
15083;DHT22;7640;53.116;6.878;2022-09-09T16:16:54;32.20;99.90
15083;DHT22;7640;53.116;6.878;2022-09-09T16:19:23;32.40;99.90
15083;DHT22;7640;53.116;6.878;2022-09-09T16:21:53;32.20;99.60
15083;DHT22;7640;53.116;6.878;2022-09-09T16:24:21;32.00;99.40